Terminal Aerodrome Forecast
Issued by NWS Cleveland, OH

Home | Current Version | Previous Version | Graphics & Text | Print | Product List | Glossary On
Versions: 1 2 3 4 5 6 7 8 9 10 11 12 13 14 15
000
FTUS41 KCLE 251700
TAFERI
TAF
KERI 251726Z 2518/2618 20015G25KT P6SM SCT050 BKN100
     FM252100 21014G22KT P6SM BKN050 OVC100
      TEMPO 2521/2601 5SM -SHRA BR OVC035
     FM260200 20012KT P6SM SCT050 BKN100
     FM261000 20010KT 6SM -SHRA BR SCT025 OVC050
      TEMPO 2610/2614 5SM -SHRA BR OVC025
     FM261500 20012KT P6SM BKN050=

USA.gov is the U.S. government's official web portal to all federal, state and local government web resources and services.